sensor_id;sensor_type;location;lat;lon;timestamp;P1;durP1;ratioP1;P2;durP2;ratioP2
47555;SDS011;33291;46.222;26.460;2023-07-13T00:00:28;12.05;;;9.82;;
47555;SDS011;33291;46.222;26.460;2023-07-13T00:02:55;11.27;;;9.32;;
47555;SDS011;33291;46.222;26.460;2023-07-13T00:05:21;15.85;;;9.55;;
47555;SDS011;33291;46.222;26.460;2023-07-13T00:07:48;12.20;;;9.10;;
47555;SDS011;33291;46.222;26.460;2023-07-13T00:10:14;17.02;;;9.60;;
47555;SDS011;33291;46.222;26.460;2023-07-13T00:12:40;17.75;;;9.93;;
47555;SDS011;33291;46.222;26.460;2023-07-13T00:15:09;14.45;;;9.10;;
47555;SDS011;33291;46.222;26.460;2023-07-13T00:17:41;17.95;;;8.70;;
47555;SDS011;33291;46.222;26.460;2023-07-13T00:20:07;12.15;;;8.85;;
47555;SDS011;33291;46.222;26.460;2023-07-13T00:22:33;13.23;;;9.27;;
47555;SDS011;33291;46.222;26.460;2023-07-13T00:24:59;11.90;;;9.38;;
47555;SDS011;33291;46.222;26.460;2023-07-13T00:27:24;13.57;;;8.80;;
47555;SDS011;33291;46.222;26.460;2023-07-13T00:29:55;9.75;;;8.30;;
47555;SDS011;33291;46.222;26.460;2023-07-13T00:32:20;12.75;;;9.50;;
47555;SDS011;33291;46.222;26.460;2023-07-13T00:34:46;16.88;;;9.07;;
47555;SDS011;33291;46.222;26.460;2023-07-13T00:37:12;15.07;;;9.27;;
47555;SDS011;33291;46.222;26.460;2023-07-13T00:39:37;12.30;;;8.88;;
47555;SDS011;33291;46.222;26.460;2023-07-13T00:42:04;11.80;;;8.43;;
47555;SDS011;33291;46.222;26.460;2023-07-13T00:44:30;15.23;;;8.60;;
47555;SDS011;33291;46.222;26.460;2023-07-13T00:46:55;12.98;;;8.48;;
47555;SDS011;33291;46.222;26.460;2023-07-13T00:49:23;14.18;;;9.10;;
47555;SDS011;33291;46.222;26.460;2023-07-13T00:51:53;10.38;;;8.05;;
47555;SDS011;33291;46.222;26.460;2023-07-13T00:54:29;14.43;;;8.07;;
47555;SDS011;33291;46.222;26.460;2023-07-13T00:56:59;11.15;;;7.60;;
47555;SDS011;33291;46.222;26.460;2023-07-13T00:59:28;10.65;;;7.75;;
47555;SDS011;33291;46.222;26.460;2023-07-13T01:01:54;12.82;;;7.57;;
47555;SDS011;33291;46.222;26.460;2023-07-13T01:04:19;11.80;;;7.53;;
47555;SDS011;33291;46.222;26.460;2023-07-13T01:06:45;13.10;;;7.75;;
47555;SDS011;33291;46.222;26.460;2023-07-13T01:09:12;9.38;;;7.38;;
47555;SDS011;33291;46.222;26.460;2023-07-13T01:11:39;9.85;;;7.85;;
47555;SDS011;33291;46.222;26.460;2023-07-13T01:14:06;9.35;;;7.30;;
47555;SDS011;33291;46.222;26.460;2023-07-13T01:16:32;12.77;;;8.05;;
47555;SDS011;33291;46.222;26.460;2023-07-13T01:18:59;11.77;;;6.97;;
47555;SDS011;33291;46.222;26.460;2023-07-13T01:21:31;10.73;;;7.97;;
47555;SDS011;33291;46.222;26.460;2023-07-13T01:23:58;12.15;;;7.13;;
47555;SDS011;33291;46.222;26.460;2023-07-13T01:26:23;10.05;;;7.75;;
47555;SDS011;33291;46.222;26.460;2023-07-13T01:28:49;13.88;;;7.95;;
47555;SDS011;33291;46.222;26.460;2023-07-13T01:31:14;10.75;;;6.53;;
47555;SDS011;33291;46.222;26.460;2023-07-13T01:33:40;10.70;;;7.97;;
47555;SDS011;33291;46.222;26.460;2023-07-13T01:36:07;11.50;;;7.75;;
47555;SDS011;33291;46.222;26.460;2023-07-13T01:38:34;11.10;;;7.55;;
47555;SDS011;33291;46.222;26.460;2023-07-13T01:41:00;13.50;;;7.68;;
47555;SDS011;33291;46.222;26.460;2023-07-13T01:43:26;8.82;;;7.68;;
47555;SDS011;33291;46.222;26.460;2023-07-13T01:45:52;9.45;;;7.70;;
47555;SDS011;33291;46.222;26.460;2023-07-13T01:48:18;11.48;;;7.63;;
47555;SDS011;33291;46.222;26.460;2023-07-13T01:50:45;10.63;;;7.90;;
47555;SDS011;33291;46.222;26.460;2023-07-13T01:53:10;11.57;;;7.85;;
47555;SDS011;33291;46.222;26.460;2023-07-13T01:55:36;8.50;;;7.15;;
47555;SDS011;33291;46.222;26.460;2023-07-13T01:58:02;11.73;;;7.18;;
47555;SDS011;33291;46.222;26.460;2023-07-13T02:00:28;9.98;;;7.10;;
47555;SDS011;33291;46.222;26.460;2023-07-13T02:02:54;10.68;;;6.93;;
47555;SDS011;33291;46.222;26.460;2023-07-13T02:05:20;10.40;;;7.40;;
47555;SDS011;33291;46.222;26.460;2023-07-13T02:07:45;10.45;;;7.45;;
47555;SDS011;33291;46.222;26.460;2023-07-13T02:10:11;13.27;;;7.13;;
47555;SDS011;33291;46.222;26.460;2023-07-13T02:12:37;13.77;;;7.35;;
47555;SDS011;33291;46.222;26.460;2023-07-13T02:15:03;8.80;;;6.70;;
47555;SDS011;33291;46.222;26.460;2023-07-13T02:17:29;12.68;;;7.75;;
47555;SDS011;33291;46.222;26.460;2023-07-13T02:19:57;11.90;;;6.93;;
47555;SDS011;33291;46.222;26.460;2023-07-13T02:22:22;7.90;;;6.55;;
47555;SDS011;33291;46.222;26.460;2023-07-13T02:24:48;14.32;;;6.65;;
47555;SDS011;33291;46.222;26.460;2023-07-13T02:27:14;9.05;;;6.75;;
47555;SDS011;33291;46.222;26.460;2023-07-13T02:29:40;8.35;;;6.25;;
47555;SDS011;33291;46.222;26.460;2023-07-13T02:32:06;16.48;;;6.88;;
47555;SDS011;33291;46.222;26.460;2023-07-13T02:34:32;13.07;;;7.15;;
47555;SDS011;33291;46.222;26.460;2023-07-13T02:36:57;10.25;;;6.30;;
47555;SDS011;33291;46.222;26.460;2023-07-13T02:39:23;15.05;;;7.57;;
47555;SDS011;33291;46.222;26.460;2023-07-13T02:41:48;12.85;;;6.97;;
47555;SDS011;33291;46.222;26.460;2023-07-13T02:44:14;8.30;;;6.45;;
47555;SDS011;33291;46.222;26.460;2023-07-13T02:46:40;13.90;;;7.43;;
47555;SDS011;33291;46.222;26.460;2023-07-13T02:49:05;12.13;;;7.13;;
47555;SDS011;33291;46.222;26.460;2023-07-13T02:51:31;12.85;;;7.75;;
47555;SDS011;33291;46.222;26.460;2023-07-13T02:53:59;9.70;;;7.82;;
47555;SDS011;33291;46.222;26.460;2023-07-13T02:56:29;10.73;;;7.28;;
47555;SDS011;33291;46.222;26.460;2023-07-13T02:58:56;11.00;;;7.65;;
47555;SDS011;33291;46.222;26.460;2023-07-13T03:01:22;9.90;;;7.32;;
47555;SDS011;33291;46.222;26.460;2023-07-13T03:03:49;14.25;;;6.97;;
47555;SDS011;33291;46.222;26.460;2023-07-13T03:06:15;11.48;;;7.75;;
47555;SDS011;33291;46.222;26.460;2023-07-13T03:08:41;19.38;;;8.52;;
47555;SDS011;33291;46.222;26.460;2023-07-13T03:11:09;12.40;;;8.45;;
47555;SDS011;33291;46.222;26.460;2023-07-13T03:13:37;9.20;;;8.27;;
47555;SDS011;33291;46.222;26.460;2023-07-13T03:16:04;16.20;;;8.73;;
47555;SDS011;33291;46.222;26.460;2023-07-13T03:18:30;15.10;;;9.10;;
47555;SDS011;33291;46.222;26.460;2023-07-13T03:20:56;15.07;;;9.07;;
47555;SDS011;33291;46.222;26.460;2023-07-13T03:23:22;17.50;;;8.60;;
47555;SDS011;33291;46.222;26.460;2023-07-13T03:25:48;8.75;;;7.18;;
47555;SDS011;33291;46.222;26.460;2023-07-13T03:28:14;12.35;;;7.38;;
47555;SDS011;33291;46.222;26.460;2023-07-13T03:30:40;16.58;;;7.93;;
47555;SDS011;33291;46.222;26.460;2023-07-13T03:33:06;11.10;;;8.07;;
47555;SDS011;33291;46.222;26.460;2023-07-13T03:35:33;14.02;;;8.07;;
47555;SDS011;33291;46.222;26.460;2023-07-13T03:37:59;10.10;;;8.70;;
47555;SDS011;33291;46.222;26.460;2023-07-13T03:40:25;16.48;;;8.70;;
47555;SDS011;33291;46.222;26.460;2023-07-13T03:42:52;15.05;;;8.40;;
47555;SDS011;33291;46.222;26.460;2023-07-13T03:45:17;15.75;;;8.35;;
47555;SDS011;33291;46.222;26.460;2023-07-13T03:47:43;14.95;;;9.20;;
47555;SDS011;33291;46.222;26.460;2023-07-13T03:50:09;22.45;;;9.00;;
47555;SDS011;33291;46.222;26.460;2023-07-13T03:52:35;10.68;;;8.93;;
47555;SDS011;33291;46.222;26.460;2023-07-13T03:55:00;12.95;;;9.25;;
47555;SDS011;33291;46.222;26.460;2023-07-13T03:57:26;17.92;;;10.73;;
47555;SDS011;33291;46.222;26.460;2023-07-13T03:59:52;12.20;;;8.85;;
47555;SDS011;33291;46.222;26.460;2023-07-13T04:02:17;15.15;;;8.55;;
47555;SDS011;33291;46.222;26.460;2023-07-13T04:04:43;17.33;;;8.85;;
47555;SDS011;33291;46.222;26.460;2023-07-13T04:07:08;15.20;;;9.68;;
47555;SDS011;33291;46.222;26.460;2023-07-13T04:09:35;13.20;;;9.25;;
47555;SDS011;33291;46.222;26.460;2023-07-13T04:12:00;12.90;;;9.70;;
47555;SDS011;33291;46.222;26.460;2023-07-13T04:14:26;17.55;;;9.13;;
47555;SDS011;33291;46.222;26.460;2023-07-13T04:16:51;15.93;;;9.15;;
47555;SDS011;33291;46.222;26.460;2023-07-13T04:19:19;11.80;;;9.45;;
47555;SDS011;33291;46.222;26.460;2023-07-13T04:21:45;9.88;;;8.82;;
47555;SDS011;33291;46.222;26.460;2023-07-13T04:24:11;11.02;;;8.50;;
47555;SDS011;33291;46.222;26.460;2023-07-13T04:26:37;18.92;;;9.18;;
47555;SDS011;33291;46.222;26.460;2023-07-13T04:29:03;12.75;;;9.75;;
47555;SDS011;33291;46.222;26.460;2023-07-13T04:31:30;14.07;;;9.35;;
47555;SDS011;33291;46.222;26.460;2023-07-13T04:33:56;14.13;;;9.93;;
47555;SDS011;33291;46.222;26.460;2023-07-13T04:36:21;12.95;;;9.63;;
47555;SDS011;33291;46.222;26.460;2023-07-13T04:38:47;15.18;;;10.02;;
47555;SDS011;33291;46.222;26.460;2023-07-13T04:41:14;13.88;;;10.05;;
47555;SDS011;33291;46.222;26.460;2023-07-13T04:43:40;12.00;;;9.43;;
47555;SDS011;33291;46.222;26.460;2023-07-13T04:46:07;11.35;;;9.88;;
47555;SDS011;33291;46.222;26.460;2023-07-13T04:48:33;15.38;;;10.02;;
47555;SDS011;33291;46.222;26.460;2023-07-13T04:50:59;12.00;;;8.60;;
47555;SDS011;33291;46.222;26.460;2023-07-13T04:53:26;10.73;;;9.48;;
47555;SDS011;33291;46.222;26.460;2023-07-13T04:55:52;12.10;;;9.85;;
47555;SDS011;33291;46.222;26.460;2023-07-13T04:58:18;18.83;;;9.45;;
47555;SDS011;33291;46.222;26.460;2023-07-13T05:00:43;12.88;;;9.98;;
47555;SDS011;33291;46.222;26.460;2023-07-13T05:03:09;12.68;;;9.90;;
47555;SDS011;33291;46.222;26.460;2023-07-13T05:05:35;11.15;;;10.00;;
47555;SDS011;33291;46.222;26.460;2023-07-13T05:08:00;13.18;;;9.48;;
47555;SDS011;33291;46.222;26.460;2023-07-13T05:10:26;11.48;;;8.85;;
47555;SDS011;33291;46.222;26.460;2023-07-13T05:12:51;12.10;;;9.73;;
47555;SDS011;33291;46.222;26.460;2023-07-13T05:15:17;16.52;;;10.80;;
47555;SDS011;33291;46.222;26.460;2023-07-13T05:17:49;14.05;;;9.23;;
47555;SDS011;33291;46.222;26.460;2023-07-13T05:20:15;19.55;;;8.93;;
47555;SDS011;33291;46.222;26.460;2023-07-13T05:22:42;13.77;;;9.82;;
47555;SDS011;33291;46.222;26.460;2023-07-13T05:25:08;13.23;;;9.52;;
47555;SDS011;33291;46.222;26.460;2023-07-13T05:27:34;14.63;;;8.95;;
47555;SDS011;33291;46.222;26.460;2023-07-13T05:30:02;14.88;;;9.13;;
47555;SDS011;33291;46.222;26.460;2023-07-13T05:32:28;15.07;;;9.35;;
47555;SDS011;33291;46.222;26.460;2023-07-13T05:34:54;13.10;;;8.45;;
47555;SDS011;33291;46.222;26.460;2023-07-13T05:37:19;12.63;;;9.02;;
47555;SDS011;33291;46.222;26.460;2023-07-13T05:39:45;13.43;;;8.50;;
47555;SDS011;33291;46.222;26.460;2023-07-13T05:42:10;12.82;;;9.48;;
47555;SDS011;33291;46.222;26.460;2023-07-13T05:44:36;16.38;;;9.10;;
47555;SDS011;33291;46.222;26.460;2023-07-13T05:47:01;21.17;;;9.57;;
47555;SDS011;33291;46.222;26.460;2023-07-13T05:49:27;14.40;;;9.50;;
47555;SDS011;33291;46.222;26.460;2023-07-13T05:51:52;10.20;;;8.35;;
47555;SDS011;33291;46.222;26.460;2023-07-13T05:54:18;12.18;;;8.93;;
47555;SDS011;33291;46.222;26.460;2023-07-13T05:56:43;11.75;;;8.50;;
47555;SDS011;33291;46.222;26.460;2023-07-13T05:59:09;13.48;;;9.27;;
47555;SDS011;33291;46.222;26.460;2023-07-13T06:01:34;11.38;;;8.20;;
47555;SDS011;33291;46.222;26.460;2023-07-13T06:04:00;9.63;;;7.78;;
47555;SDS011;33291;46.222;26.460;2023-07-13T06:06:26;12.57;;;9.00;;
47555;SDS011;33291;46.222;26.460;2023-07-13T06:08:51;15.15;;;8.48;;
47555;SDS011;33291;46.222;26.460;2023-07-13T06:11:18;10.38;;;8.20;;
47555;SDS011;33291;46.222;26.460;2023-07-13T06:13:46;9.95;;;8.45;;
47555;SDS011;33291;46.222;26.460;2023-07-13T06:16:11;10.00;;;8.10;;
47555;SDS011;33291;46.222;26.460;2023-07-13T06:18:38;9.43;;;7.38;;
47555;SDS011;33291;46.222;26.460;2023-07-13T06:21:06;10.00;;;7.40;;
47555;SDS011;33291;46.222;26.460;2023-07-13T06:23:35;12.65;;;8.23;;
47555;SDS011;33291;46.222;26.460;2023-07-13T06:26:01;9.35;;;7.72;;
47555;SDS011;33291;46.222;26.460;2023-07-13T06:28:28;13.32;;;8.57;;
47555;SDS011;33291;46.222;26.460;2023-07-13T06:30:55;11.65;;;7.00;;
47555;SDS011;33291;46.222;26.460;2023-07-13T06:33:20;12.57;;;7.07;;
47555;SDS011;33291;46.222;26.460;2023-07-13T06:35:46;12.50;;;7.03;;
47555;SDS011;33291;46.222;26.460;2023-07-13T06:38:11;9.93;;;7.28;;
47555;SDS011;33291;46.222;26.460;2023-07-13T06:40:36;11.07;;;7.13;;
47555;SDS011;33291;46.222;26.460;2023-07-13T06:43:02;8.63;;;6.70;;
47555;SDS011;33291;46.222;26.460;2023-07-13T06:45:27;8.73;;;6.93;;
47555;SDS011;33291;46.222;26.460;2023-07-13T06:47:53;7.20;;;6.50;;
47555;SDS011;33291;46.222;26.460;2023-07-13T06:50:18;8.82;;;6.57;;
47555;SDS011;33291;46.222;26.460;2023-07-13T06:52:43;10.77;;;7.00;;
47555;SDS011;33291;46.222;26.460;2023-07-13T06:55:09;10.45;;;6.75;;
47555;SDS011;33291;46.222;26.460;2023-07-13T06:57:35;7.68;;;5.88;;
47555;SDS011;33291;46.222;26.460;2023-07-13T07:00:00;7.45;;;6.05;;
47555;SDS011;33291;46.222;26.460;2023-07-13T07:02:25;8.70;;;5.70;;
47555;SDS011;33291;46.222;26.460;2023-07-13T07:04:51;8.30;;;5.80;;
47555;SDS011;33291;46.222;26.460;2023-07-13T07:07:16;9.98;;;6.22;;
47555;SDS011;33291;46.222;26.460;2023-07-13T07:09:42;11.40;;;6.63;;
47555;SDS011;33291;46.222;26.460;2023-07-13T07:12:07;11.27;;;6.35;;
47555;SDS011;33291;46.222;26.460;2023-07-13T07:14:33;12.02;;;6.95;;
47555;SDS011;33291;46.222;26.460;2023-07-13T07:16:59;9.73;;;6.03;;
47555;SDS011;33291;46.222;26.460;2023-07-13T07:19:25;9.30;;;5.88;;
47555;SDS011;33291;46.222;26.460;2023-07-13T07:21:50;9.35;;;6.47;;
47555;SDS011;33291;46.222;26.460;2023-07-13T07:24:16;8.43;;;6.10;;
47555;SDS011;33291;46.222;26.460;2023-07-13T07:26:41;8.13;;;6.45;;
47555;SDS011;33291;46.222;26.460;2023-07-13T07:29:07;8.13;;;6.13;;
47555;SDS011;33291;46.222;26.460;2023-07-13T07:31:32;10.30;;;6.82;;
47555;SDS011;33291;46.222;26.460;2023-07-13T07:33:57;14.95;;;7.40;;
47555;SDS011;33291;46.222;26.460;2023-07-13T07:42:42;6.55;;;5.85;;
47555;SDS011;33291;46.222;26.460;2023-07-13T07:45:07;9.32;;;5.88;;
47555;SDS011;33291;46.222;26.460;2023-07-13T07:47:33;7.90;;;5.93;;
47555;SDS011;33291;46.222;26.460;2023-07-13T07:49:58;10.25;;;5.75;;
47555;SDS011;33291;46.222;26.460;2023-07-13T07:52:24;11.65;;;5.72;;
47555;SDS011;33291;46.222;26.460;2023-07-13T07:54:49;12.10;;;5.95;;
47555;SDS011;33291;46.222;26.460;2023-07-13T07:57:15;13.00;;;6.10;;
47555;SDS011;33291;46.222;26.460;2023-07-13T07:59:40;10.02;;;5.88;;
47555;SDS011;33291;46.222;26.460;2023-07-13T08:02:06;14.95;;;6.28;;
47555;SDS011;33291;46.222;26.460;2023-07-13T08:04:33;8.43;;;5.63;;
47555;SDS011;33291;46.222;26.460;2023-07-13T08:06:59;15.05;;;6.28;;
47555;SDS011;33291;46.222;26.460;2023-07-13T08:09:27;7.78;;;6.45;;
47555;SDS011;33291;46.222;26.460;2023-07-13T08:11:53;13.43;;;5.82;;
47555;SDS011;33291;46.222;26.460;2023-07-13T08:14:19;6.82;;;5.47;;
47555;SDS011;33291;46.222;26.460;2023-07-13T08:16:45;15.35;;;6.30;;
47555;SDS011;33291;46.222;26.460;2023-07-13T08:19:10;13.40;;;6.15;;
47555;SDS011;33291;46.222;26.460;2023-07-13T08:21:36;8.15;;;6.35;;
47555;SDS011;33291;46.222;26.460;2023-07-13T08:24:02;12.60;;;7.03;;
47555;SDS011;33291;46.222;26.460;2023-07-13T08:26:27;12.55;;;6.38;;
47555;SDS011;33291;46.222;26.460;2023-07-13T08:28:53;8.73;;;6.07;;
47555;SDS011;33291;46.222;26.460;2023-07-13T08:31:18;9.43;;;5.97;;
47555;SDS011;33291;46.222;26.460;2023-07-13T08:33:44;8.27;;;6.03;;
47555;SDS011;33291;46.222;26.460;2023-07-13T08:36:10;15.18;;;6.45;;
47555;SDS011;33291;46.222;26.460;2023-07-13T08:38:35;9.07;;;6.47;;
47555;SDS011;33291;46.222;26.460;2023-07-13T08:41:02;9.55;;;5.72;;
47555;SDS011;33291;46.222;26.460;2023-07-13T08:43:36;10.80;;;5.70;;
47555;SDS011;33291;46.222;26.460;2023-07-13T08:46:09;11.77;;;6.03;;
47555;SDS011;33291;46.222;26.460;2023-07-13T08:49:12;8.90;;;5.95;;
47555;SDS011;33291;46.222;26.460;2023-07-13T08:51:44;8.38;;;6.45;;
47555;SDS011;33291;46.222;26.460;2023-07-13T08:54:24;13.13;;;6.78;;
47555;SDS011;33291;46.222;26.460;2023-07-13T08:56:58;11.90;;;5.72;;
47555;SDS011;33291;46.222;26.460;2023-07-13T08:59:27;10.38;;;5.35;;
47555;SDS011;33291;46.222;26.460;2023-07-13T09:04:36;10.63;;;5.53;;
47555;SDS011;33291;46.222;26.460;2023-07-13T09:10:02;17.02;;;6.32;;
47555;SDS011;33291;46.222;26.460;2023-07-13T09:15:28;9.68;;;5.65;;
47555;SDS011;33291;46.222;26.460;2023-07-13T09:17:59;11.05;;;5.53;;
47555;SDS011;33291;46.222;26.460;2023-07-13T09:20:50;9.40;;;5.43;;
47555;SDS011;33291;46.222;26.460;2023-07-13T09:23:20;8.60;;;5.78;;
47555;SDS011;33291;46.222;26.460;2023-07-13T09:25:48;9.40;;;6.30;;
47555;SDS011;33291;46.222;26.460;2023-07-13T09:33:37;8.38;;;5.75;;
47555;SDS011;33291;46.222;26.460;2023-07-13T09:36:14;9.88;;;6.32;;
47555;SDS011;33291;46.222;26.460;2023-07-13T09:39:04;13.30;;;6.25;;
47555;SDS011;33291;46.222;26.460;2023-07-13T09:41:41;10.45;;;6.05;;
47555;SDS011;33291;46.222;26.460;2023-07-13T09:44:54;12.93;;;7.22;;
47555;SDS011;33291;46.222;26.460;2023-07-13T09:47:23;13.82;;;6.57;;
47555;SDS011;33291;46.222;26.460;2023-07-13T09:50:04;7.22;;;6.07;;
47555;SDS011;33291;46.222;26.460;2023-07-13T09:52:50;8.75;;;6.78;;
47555;SDS011;33291;46.222;26.460;2023-07-13T09:58:14;7.72;;;6.28;;
47555;SDS011;33291;46.222;26.460;2023-07-13T10:01:08;8.05;;;5.72;;
47555;SDS011;33291;46.222;26.460;2023-07-13T10:03:34;9.40;;;6.13;;
47555;SDS011;33291;46.222;26.460;2023-07-13T10:06:12;9.65;;;5.63;;
47555;SDS011;33291;46.222;26.460;2023-07-13T10:08:39;10.73;;;6.63;;
47555;SDS011;33291;46.222;26.460;2023-07-13T10:11:12;10.95;;;6.00;;
47555;SDS011;33291;46.222;26.460;2023-07-13T10:16:42;7.72;;;6.55;;
47555;SDS011;33291;46.222;26.460;2023-07-13T10:19:23;9.77;;;6.07;;
47555;SDS011;33291;46.222;26.460;2023-07-13T10:21:56;17.97;;;6.73;;
47555;SDS011;33291;46.222;26.460;2023-07-13T10:24:26;12.82;;;6.10;;
47555;SDS011;33291;46.222;26.460;2023-07-13T10:29:39;9.88;;;6.53;;
47555;SDS011;33291;46.222;26.460;2023-07-13T10:32:11;10.38;;;6.22;;
47555;SDS011;33291;46.222;26.460;2023-07-13T10:34:38;14.02;;;7.15;;
47555;SDS011;33291;46.222;26.460;2023-07-13T10:37:05;7.72;;;6.13;;
47555;SDS011;33291;46.222;26.460;2023-07-13T10:39:40;11.77;;;6.55;;
47555;SDS011;33291;46.222;26.460;2023-07-13T10:42:06;10.38;;;6.90;;
47555;SDS011;33291;46.222;26.460;2023-07-13T10:44:39;14.95;;;6.75;;
47555;SDS011;33291;46.222;26.460;2023-07-13T10:47:06;12.80;;;6.93;;
47555;SDS011;33291;46.222;26.460;2023-07-13T10:49:36;10.10;;;6.53;;
47555;SDS011;33291;46.222;26.460;2023-07-13T10:52:02;10.85;;;6.35;;
47555;SDS011;33291;46.222;26.460;2023-07-13T10:59:38;13.85;;;5.93;;
47555;SDS011;33291;46.222;26.460;2023-07-13T11:04:40;9.10;;;6.63;;
47555;SDS011;33291;46.222;26.460;2023-07-13T11:07:18;15.15;;;6.53;;
47555;SDS011;33291;46.222;26.460;2023-07-13T11:09:48;13.35;;;6.57;;
47555;SDS011;33291;46.222;26.460;2023-07-13T11:25:35;12.98;;;6.93;;
47555;SDS011;33291;46.222;26.460;2023-07-13T11:30:46;9.90;;;7.05;;
47555;SDS011;33291;46.222;26.460;2023-07-13T11:36:12;12.98;;;6.65;;
47555;SDS011;33291;46.222;26.460;2023-07-13T11:38:39;11.45;;;6.60;;
47555;SDS011;33291;46.222;26.460;2023-07-13T11:43:54;11.68;;;6.47;;
47555;SDS011;33291;46.222;26.460;2023-07-13T11:46:30;9.23;;;7.00;;
47555;SDS011;33291;46.222;26.460;2023-07-13T11:48:55;9.00;;;6.93;;
47555;SDS011;33291;46.222;26.460;2023-07-13T11:51:22;11.30;;;7.03;;
47555;SDS011;33291;46.222;26.460;2023-07-13T11:53:52;15.45;;;7.07;;
47555;SDS011;33291;46.222;26.460;2023-07-13T11:56:19;15.45;;;7.03;;
47555;SDS011;33291;46.222;26.460;2023-07-13T11:58:47;15.18;;;7.03;;
47555;SDS011;33291;46.222;26.460;2023-07-13T12:01:22;15.32;;;6.90;;
47555;SDS011;33291;46.222;26.460;2023-07-13T12:03:50;11.50;;;7.35;;
47555;SDS011;33291;46.222;26.460;2023-07-13T12:06:29;18.75;;;7.13;;
47555;SDS011;33291;46.222;26.460;2023-07-13T12:08:57;14.23;;;6.50;;
47555;SDS011;33291;46.222;26.460;2023-07-13T12:11:28;9.38;;;6.13;;
47555;SDS011;33291;46.222;26.460;2023-07-13T12:13:54;13.93;;;7.28;;
47555;SDS011;33291;46.222;26.460;2023-07-13T12:18:46;11.27;;;6.72;;
47555;SDS011;33291;46.222;26.460;2023-07-13T12:21:12;12.43;;;6.28;;
47555;SDS011;33291;46.222;26.460;2023-07-13T12:23:39;14.52;;;6.35;;
47555;SDS011;33291;46.222;26.460;2023-07-13T12:26:09;12.75;;;5.85;;
47555;SDS011;33291;46.222;26.460;2023-07-13T12:28:37;13.75;;;6.60;;
47555;SDS011;33291;46.222;26.460;2023-07-13T12:31:05;13.40;;;6.45;;
47555;SDS011;33291;46.222;26.460;2023-07-13T12:33:33;13.80;;;6.47;;
47555;SDS011;33291;46.222;26.460;2023-07-13T12:36:00;12.52;;;7.38;;
47555;SDS011;33291;46.222;26.460;2023-07-13T12:38:28;14.60;;;6.97;;
47555;SDS011;33291;46.222;26.460;2023-07-13T12:40:55;11.57;;;6.40;;
47555;SDS011;33291;46.222;26.460;2023-07-13T12:43:23;13.18;;;6.97;;
47555;SDS011;33291;46.222;26.460;2023-07-13T12:45:54;17.52;;;6.93;;
47555;SDS011;33291;46.222;26.460;2023-07-13T12:48:28;13.68;;;7.55;;
47555;SDS011;33291;46.222;26.460;2023-07-13T12:50:54;12.52;;;6.10;;
47555;SDS011;33291;46.222;26.460;2023-07-13T12:53:28;9.57;;;6.70;;
47555;SDS011;33291;46.222;26.460;2023-07-13T12:55:56;17.60;;;6.18;;
47555;SDS011;33291;46.222;26.460;2023-07-13T12:58:28;14.88;;;7.40;;
47555;SDS011;33291;46.222;26.460;2023-07-13T13:00:57;14.55;;;6.57;;
47555;SDS011;33291;46.222;26.460;2023-07-13T13:03:26;14.02;;;6.78;;
47555;SDS011;33291;46.222;26.460;2023-07-13T13:05:58;10.15;;;6.47;;
47555;SDS011;33291;46.222;26.460;2023-07-13T13:08:35;14.88;;;6.88;;
47555;SDS011;33291;46.222;26.460;2023-07-13T13:11:02;14.93;;;5.25;;
47555;SDS011;33291;46.222;26.460;2023-07-13T13:13:28;13.73;;;6.05;;
47555;SDS011;33291;46.222;26.460;2023-07-13T13:15:53;18.33;;;6.25;;
47555;SDS011;33291;46.222;26.460;2023-07-13T13:18:20;15.75;;;5.50;;
47555;SDS011;33291;46.222;26.460;2023-07-13T13:20:47;17.17;;;5.97;;
47555;SDS011;33291;46.222;26.460;2023-07-13T13:23:17;15.00;;;5.32;;
47555;SDS011;33291;46.222;26.460;2023-07-13T13:25:49;15.65;;;5.45;;
47555;SDS011;33291;46.222;26.460;2023-07-13T13:28:17;17.10;;;5.43;;
47555;SDS011;33291;46.222;26.460;2023-07-13T13:30:44;12.98;;;5.40;;
47555;SDS011;33291;46.222;26.460;2023-07-13T13:33:13;15.00;;;6.03;;
47555;SDS011;33291;46.222;26.460;2023-07-13T13:35:44;14.20;;;5.88;;
47555;SDS011;33291;46.222;26.460;2023-07-13T13:38:11;18.83;;;6.63;;
47555;SDS011;33291;46.222;26.460;2023-07-13T13:40:40;11.68;;;6.00;;
47555;SDS011;33291;46.222;26.460;2023-07-13T13:43:13;21.35;;;6.15;;
47555;SDS011;33291;46.222;26.460;2023-07-13T13:45:43;10.07;;;5.57;;
47555;SDS011;33291;46.222;26.460;2023-07-13T13:48:14;11.50;;;6.80;;
47555;SDS011;33291;46.222;26.460;2023-07-13T13:50:43;21.52;;;6.70;;
47555;SDS011;33291;46.222;26.460;2023-07-13T13:53:12;11.85;;;6.30;;
47555;SDS011;33291;46.222;26.460;2023-07-13T13:55:41;17.97;;;6.47;;
47555;SDS011;33291;46.222;26.460;2023-07-13T13:58:10;13.90;;;6.30;;
47555;SDS011;33291;46.222;26.460;2023-07-13T14:00:36;15.63;;;6.15;;
47555;SDS011;33291;46.222;26.460;2023-07-13T14:03:03;15.32;;;5.68;;
47555;SDS011;33291;46.222;26.460;2023-07-13T14:05:29;18.25;;;5.50;;
47555;SDS011;33291;46.222;26.460;2023-07-13T14:07:55;17.80;;;7.45;;
47555;SDS011;33291;46.222;26.460;2023-07-13T14:10:21;18.20;;;5.90;;
47555;SDS011;33291;46.222;26.460;2023-07-13T14:12:48;14.05;;;5.90;;
47555;SDS011;33291;46.222;26.460;2023-07-13T14:15:22;10.40;;;5.45;;
47555;SDS011;33291;46.222;26.460;2023-07-13T14:17:50;14.75;;;5.35;;
47555;SDS011;33291;46.222;26.460;2023-07-13T14:20:17;15.48;;;5.15;;
47555;SDS011;33291;46.222;26.460;2023-07-13T14:22:45;11.32;;;4.72;;
47555;SDS011;33291;46.222;26.460;2023-07-13T14:25:14;9.77;;;5.55;;
47555;SDS011;33291;46.222;26.460;2023-07-13T14:27:41;11.10;;;4.85;;
47555;SDS011;33291;46.222;26.460;2023-07-13T14:30:14;16.98;;;5.85;;
47555;SDS011;33291;46.222;26.460;2023-07-13T14:32:41;14.40;;;5.55;;
47555;SDS011;33291;46.222;26.460;2023-07-13T14:35:08;11.30;;;5.45;;
47555;SDS011;33291;46.222;26.460;2023-07-13T14:37:38;12.30;;;5.35;;
47555;SDS011;33291;46.222;26.460;2023-07-13T14:42:38;11.27;;;5.65;;
47555;SDS011;33291;46.222;26.460;2023-07-13T14:45:04;11.50;;;5.70;;
47555;SDS011;33291;46.222;26.460;2023-07-13T14:47:30;14.48;;;5.30;;
47555;SDS011;33291;46.222;26.460;2023-07-13T14:49:55;11.20;;;4.82;;
47555;SDS011;33291;46.222;26.460;2023-07-13T14:52:22;12.73;;;5.88;;
47555;SDS011;33291;46.222;26.460;2023-07-13T14:54:49;13.77;;;5.40;;
47555;SDS011;33291;46.222;26.460;2023-07-13T14:57:16;11.50;;;5.63;;
47555;SDS011;33291;46.222;26.460;2023-07-13T14:59:43;11.88;;;5.55;;
47555;SDS011;33291;46.222;26.460;2023-07-13T15:04:41;12.80;;;5.10;;
47555;SDS011;33291;46.222;26.460;2023-07-13T15:07:07;9.90;;;5.22;;
47555;SDS011;33291;46.222;26.460;2023-07-13T15:09:35;8.52;;;5.45;;
47555;SDS011;33291;46.222;26.460;2023-07-13T15:12:00;10.88;;;6.00;;
47555;SDS011;33291;46.222;26.460;2023-07-13T15:14:26;19.75;;;6.32;;
47555;SDS011;33291;46.222;26.460;2023-07-13T15:16:53;14.35;;;5.72;;
47555;SDS011;33291;46.222;26.460;2023-07-13T15:19:20;9.57;;;6.20;;
47555;SDS011;33291;46.222;26.460;2023-07-13T15:21:48;15.68;;;5.65;;
47555;SDS011;33291;46.222;26.460;2023-07-13T15:24:14;10.38;;;5.45;;
47555;SDS011;33291;46.222;26.460;2023-07-13T15:26:41;8.57;;;5.72;;
47555;SDS011;33291;46.222;26.460;2023-07-13T15:29:10;14.45;;;6.32;;
47555;SDS011;33291;46.222;26.460;2023-07-13T15:31:36;9.02;;;5.50;;